John F Kennedy International Airport
KJFK : now visible

Airfield :











YOU CAN JOIN US ON...

 
LOGIN :

Register | Disclaimer

   EN    FR    IT 

 









Legend :    VFR   Marginal VFR   IFR   Intensive IFR   Very Intensive IFR
Visi :
Ceiling :
>= 8 km
>= 3000ft
5 to 8 km
1000 to 3000 ft
1500m to 5 km
500 to 1000 ft
800 to 1500m
200 to 500 ft
< 800m
< 200 ft
Symbols :   Thunderstorms  Fog  Heavy snow  Heavy precipitations  Wind > 20 kt






- Airport Elevation : 13 ft
- IATA code : JFK


KJFK - John F Kennedy International

CURRENT METAR :
  • 280851Z 26026G33KT 10SM SCT050 M01/M09 A2985 RMK AO2 PK WND 26033/0851 SLP107 T10061094 55001 $

EXPIRED METARs :
  • 280751Z 25023G31KT 10SM SCT055 M01/M09 A2985 RMK AO2 PK WND 26031/0742 SLP106 T10061094 $
  • 280651Z 25018KT 10SM SCT060 M01/M09 A2985 RMK AO2 PK WND 25027/0622 SLP107 T10061094 $

TAF KJFK
Valid from the 28 at 09:00 until the 29 at 12:00 UTC


280840Z 2809/2912 26017G26KT P6SM SCT050
FM281800 26018G26KT P6SM SCT050
FM290300 29012KT P6SM FEW050



MET'MAP, your aeronautical weather chart ! - Copyright ORBIFLY December 2007 - Disclaimer

ORBIFLY MET'MAP TEAM :

Programming & Development : Alexandra Zaïnal
Concept & original design : Baudouin d'Aumeries
Assistance for programming : Marc-Olivier Méhu
Technical & hardware support : Manuel Goepfert

Contact : metmap@orbifly.com




SOURCES & CREDITS :

   NOAA       Earth
Advisory